Terminal Aerodrome Forecast
Issued by NWS

Home | Current Version | Previous Version | Text Only | Print | Product List | Glossary On
Versions: 1 2 3 4 5 6 7 8 9 10 11 12
000
FTUS46 KMFR 262324
TAFLMT
TAF
KLMT 262324Z 2700/2724 31007KT P6SM SKC
     FM270500 VRB03KT P6SM SKC
     FM272100 27006KT P6SM SKC=

USA.gov is the U.S. government's official web portal to all federal, state and local government web resources and services.